Flight Track Log - Related Links

Times and Time Zones

All times are in EDT time to prevent confusion due to time zone crossing. See the SKW5564 flight status page for this flight to view local times or setup timezone preferences in your user account.

Time Position Orientation Groundspeed Altitude Reporting Facility
EDT Latitude Longitude Course Direction KTS MPH feet Rate Location/Type
Mon 10:53:14 AM 37.6333 -122.3500 28° Northeast 163 188 1,300  Level Northern Cal TRACON
Mon 10:54:14 AM 37.6833 -122.3167 28° Northeast 218 251 3,100 2,150 Climbing Northern Cal TRACON
Mon 10:55:14 AM 37.7333 -122.2500 47° Northeast 261 300 5,600 2,400 Climbing Northern Cal TRACON
Mon 10:57:24 AM 37.8461 -122.0803 50° Northeast 295 339 10,700 2,325 Climbing Oakland Center
Mon 10:58:25 AM 37.9058 -121.9975 48° Northeast 315 362 13,000 2,146 Climbing Oakland Center
Mon 10:59:27 AM 37.9678 -121.9128 47° Northeast 328 377 15,100 2,000 Climbing Oakland Center
Mon 11:00:28 AM 38.0306 -121.8225 49° Northeast 339 390 17,100 2,016 Climbing Oakland Center
Mon 11:01:29 AM 38.0969 -121.7289 48° Northeast 356 410 19,200 1,869 Climbing Oakland Center
Mon 11:02:30 AM 38.1650 -121.6336 48° Northeast 364 419 20,900 1,659 Climbing Oakland Center
Mon 11:03:32 AM 38.2344 -121.5331 49° Northeast 378 435 22,600 1,756 Climbing Oakland Center
Mon 11:04:33 AM 38.3136 -121.4214 48° Northeast 390 449 24,500 1,672 Climbing Oakland Center
Mon 11:05:34 AM 38.3839 -121.3133 50° Northeast 398 458 26,000 1,463 Climbing Oakland Center
Mon 11:06:36 AM 38.4619 -121.1842 52° Northeast 413 475 27,500 1,463 Climbing Oakland Center
Mon 11:07:37 AM 38.5392 -121.0592 52° Northeast 433 498 29,000 1,279 Climbing Oakland Center
Mon 11:08:38 AM 38.6125 -120.9394 52° Northeast 434 499 30,100 1,082 Climbing Oakland Center
Mon 11:09:39 AM 38.6886 -120.8158 52° Northeast 443 510 31,200 1,024 Climbing Oakland Center
Mon 11:10:41 AM 38.7669 -120.6883 52° Northeast 454 522 32,200 878 Climbing Oakland Center
Mon 11:11:42 AM 38.8469 -120.5572 52° Northeast 465 535 33,000 787 Climbing Oakland Center
Mon 11:12:43 AM 38.9275 -120.4231 52° Northeast 474 545 33,800 634 Climbing Oakland Center
Mon 11:13:45 AM 39.0106 -120.2850 52° Northeast 487 560 34,300 537 Climbing Oakland Center
Mon 11:14:46 AM 39.1097 -120.1194 52° Northeast 500 575 34,900 639 Climbing Oakland Center
Mon 11:15:47 AM 39.1894 -119.9875 52° Northeast 510 587 35,600 1,082 Climbing Oakland Center
Mon 11:16:48 AM 39.2767 -119.8439 52° Northeast 508 585 37,100 1,171 Climbing Oakland Center
Mon 11:17:50 AM 39.3589 -119.7058 52° Northeast 488 562 38,000 634 Climbing Oakland Center
Mon 11:18:51 AM 39.4419 -119.5656 52° Northeast 488 562 38,400 492 Climbing Oakland Center
Mon 11:19:52 AM 39.5400 -119.3942 53° Northeast 491 565 39,000 293 Climbing Oakland Center
Mon 11:20:54 AM 39.6239 -119.2508 53° Northeast 495 570 39,000  Level Oakland Center
Mon 11:21:55 AM 39.7108 -119.1017 53° Northeast 509 586 39,000  Level Oakland Center
Mon 11:22:56 AM 39.7981 -118.9500 53° Northeast 518 596 39,000  Level Oakland Center
Mon 11:23:58 AM 39.8844 -118.7975 54° Northeast 518 596 39,000  Level Oakland Center
Mon 11:24:59 AM 39.9528 -118.6306 62° Northeast 514 592 39,000  Level Oakland Center
Mon 11:26:00 AM 40.0197 -118.4653 62° Northeast 514 592 39,000  Level Oakland Center
Mon 11:27:02 AM 40.0858 -118.3006 62° Northeast 511 588 39,000  Level Oakland Center
Mon 11:28:03 AM 40.1517 -118.1356 62° Northeast 511 588 39,000  Level Oakland Center
Mon 11:28:41 AM 40.1911 -118.0381 62° Northeast 509 586 39,000  Level Salt Lake Center
Mon 11:29:43 AM 40.2392 -117.8431 72° East 504 580 39,000  Level Salt Lake Center
Mon 11:30:45 AM 40.2786 -117.6750 73° East 505 581 39,000  Level Salt Lake Center
Mon 11:31:47 AM 40.3178 -117.4794 75° East 501 577 39,000  Level Salt Lake Center
Mon 11:32:49 AM 40.3386 -117.3075 81° East 499 574 39,000  Level Salt Lake Center
Mon 11:33:51 AM 40.3644 -117.1061 80° East 501 577 39,000  Level Salt Lake Center
Mon 11:34:53 AM 40.3844 -116.9381 81° East 500 575 39,000  Level Salt Lake Center
Mon 11:35:55 AM 40.4053 -116.7544 81° East 507 583 39,000  Level Salt Lake Center
Mon 11:36:57 AM 40.4322 -116.5411 81° East 501 577 39,000  Level Salt Lake Center
Mon 11:38:00 AM 40.4517 -116.3714 81° East 496 571 39,000  Level Salt Lake Center
Mon 11:39:02 AM 40.4708 -116.1997 82° East 497 572 39,000  Level Salt Lake Center
Mon 11:40:04 AM 40.4939 -115.9989 81° East 498 573 39,000  Level Salt Lake Center
Mon 11:41:06 AM 40.5136 -115.8269 81° East 496 571 39,000  Level Salt Lake Center
Mon 11:42:08 AM 40.5356 -115.6253 82° East 499 574 39,000  Level Salt Lake Center
Mon 11:43:10 AM 40.5556 -115.4489 81° East 506 582 39,000  Level Salt Lake Center
Mon 11:44:12 AM 40.5761 -115.2433 82° East 510 587 39,000  Level Salt Lake Center
Mon 11:45:14 AM 40.5975 -115.0667 81° East 511 588 39,000  Level Salt Lake Center
Mon 11:46:16 AM 40.6208 -114.8581 82° East 515 593 39,000  Level Salt Lake Center
Mon 11:47:18 AM 40.6397 -114.6844 82° East 515 593 39,000  Level Salt Lake Center
Mon 11:48:20 AM 40.6553 -114.4972 84° East 515 593 39,000  Level Salt Lake Center
Mon 11:49:22 AM 40.6767 -114.2750 83° East 513 590 39,000  Level Salt Lake Center
Mon 11:50:24 AM 40.6950 -114.0889 83° East 515 593 39,000 -871 Level Salt Lake Center
Mon 11:51:26 AM 40.7131 -113.9042 83° East 511 588 37,200 -2,806 Descending Salt Lake Center
Mon 11:52:28 AM 40.7275 -113.7131 84° East 523 602 33,200 -3,871 Descending Salt Lake Center
Mon 11:53:30 AM 40.7253 -113.5233 91° East 521 600 29,200 -3,871 Descending Salt Lake Center
Mon 11:54:32 AM 40.7244 -113.3364 90° East 513 590 25,200 -4,258 Descending Salt Lake Center
Mon 11:55:34 AM 40.7239 -113.1283 90° East 466 536 20,400 -3,871 Descending Salt Lake Center
Mon 11:56:36 AM 40.7233 -112.9697 90° East 437 503 17,200 -1,907 Descending Salt Lake Center
Mon 11:57:21 AM 40.7267 -112.8714 87° East 388 447 17,000 -97 Descending Salt Lake Center
Mon 11:58:40 AM 40.7219 -112.7114 92° East 339 390 17,000 -468 Level Salt Lake Center
Mon 11:59:42 AM 40.7208 -112.5892 91° East 330 380 15,900 -1,258 Descending Salt Lake Center
Mon 12:00:44 PM 40.7186 -112.4725 91° East 321 369 14,400 -1,500 Descending Salt Lake Center
Mon 12:01:46 PM 40.7144 -112.3364 92° East 308 354 12,800 -1,113 Descending Salt Lake Center
Mon 12:02:48 PM 40.7111 -112.2358 92° East 278 320 12,100 -555 Descending Salt Lake Center
Mon 12:03:45 PM 40.7225 -112.1436 81° East 267 307 11,700 -559 Descending Salt Lake Center
Mon 12:04:46 PM 40.7869 -112.0992 28° Northeast 263 303 11,000 -393 Descending Salt Lake Center
Mon 12:05:47 PM 40.8553 -112.1075 355° North 239 275 10,900 -689 Descending Salt Lake Center
Mon 12:06:48 PM 40.9164 -112.1122 357° North 220 253 9,600 -1,240 Descending Salt Lake Center
Mon 12:07:48 PM 40.9619 -112.0797 28° Northeast 218 251 8,400 -1,200 Descending Salt Lake Center
Mon 12:08:43 PM 40.9439 -112.0206 112° Southeast 201 231 7,300 -1,190 Descending Salt Lake Center
Mon 12:09:44 PM 40.8947 -112.0117 172° South 175 201 6,100 -1,033 Descending Salt Lake Center
Mon 12:10:45 PM 40.8508 -112.0069 175° South 148 170 5,200 -797 Descending Salt Lake Center
Mon 12:12:07 PM 40.8058 -111.9992 173° South 136 157 4,200 -732 Descending Salt Lake Center

Login

Don't have an account? Register now (free) for customized features, flight alerts, and more!